createdAt,value
2019-01-11T00:00:17.590Z,4.20
2019-01-11T00:02:49.744Z,4.07
2019-01-11T00:05:21.716Z,3.80
2019-01-11T00:07:53.813Z,3.77
2019-01-11T00:10:25.755Z,5.87
2019-01-11T00:12:59.130Z,4.03
2019-01-11T00:15:32.389Z,3.13
2019-01-11T00:18:04.406Z,3.50
2019-01-11T00:20:36.522Z,4.40
2019-01-11T00:23:08.581Z,4.67
2019-01-11T00:25:40.425Z,2.63
2019-01-11T00:28:12.357Z,3.17
2019-01-11T00:30:44.390Z,3.87
2019-01-11T00:33:16.401Z,3.90
2019-01-11T00:35:48.434Z,5.50
2019-01-11T00:38:20.243Z,3.30
2019-01-11T00:40:52.188Z,3.37
2019-01-11T00:43:24.161Z,3.77
2019-01-11T00:45:56.042Z,3.40
2019-01-11T00:48:27.942Z,3.87
2019-01-11T00:50:59.804Z,3.23
2019-01-11T00:53:31.624Z,3.60
2019-01-11T00:56:03.885Z,3.87
2019-01-11T00:58:35.981Z,4.90
2019-01-11T01:01:26.775Z,3.10
2019-01-11T01:03:58.779Z,3.20
2019-01-11T01:06:30.774Z,3.97
2019-01-11T01:09:04.283Z,2.93
2019-01-11T01:11:36.163Z,3.33
2019-01-11T01:14:08.248Z,3.30
2019-01-11T01:16:40.051Z,5.27
2019-01-11T01:19:11.865Z,3.53
2019-01-11T01:21:43.656Z,3.97
2019-01-11T01:24:15.595Z,4.23
2019-01-11T01:26:47.405Z,4.43
2019-01-11T01:29:19.304Z,4.23
2019-01-11T01:31:51.300Z,4.40
2019-01-11T01:34:23.232Z,6.40
2019-01-11T01:36:55.060Z,3.37
2019-01-11T01:39:26.834Z,3.83
2019-01-11T01:41:58.783Z,4.03
2019-01-11T01:44:30.717Z,4.90
2019-01-11T01:47:02.573Z,5.00
2019-01-11T01:49:34.387Z,4.00
2019-01-11T01:52:06.732Z,4.10
2019-01-11T01:54:38.561Z,4.77
2019-01-11T01:57:10.469Z,3.30
2019-01-11T01:59:42.318Z,3.80
2019-01-11T02:02:14.157Z,3.63
2019-01-11T02:04:46.248Z,4.60
2019-01-11T02:07:18.264Z,5.17
2019-01-11T02:09:50.077Z,3.73
2019-01-11T02:12:21.932Z,4.40
2019-01-11T02:14:53.868Z,4.00
2019-01-11T02:17:25.806Z,3.90
2019-01-11T02:19:57.603Z,3.47
2019-01-11T02:22:29.589Z,3.97
2019-01-11T02:25:01.473Z,4.23
2019-01-11T02:27:33.579Z,4.97
2019-01-11T02:30:07.529Z,5.47
2019-01-11T02:32:39.306Z,3.70
2019-01-11T02:35:11.130Z,4.23
2019-01-11T02:37:43.049Z,4.53
2019-01-11T02:40:27.064Z,4.17
2019-01-11T02:42:59.008Z,4.40
2019-01-11T02:45:32.402Z,4.63
2019-01-11T02:48:04.292Z,5.00
2019-01-11T02:50:36.254Z,6.00
2019-01-11T02:53:08.064Z,5.27
2019-01-11T02:55:39.928Z,4.73
2019-01-11T02:58:11.803Z,4.80
2019-01-11T03:00:43.663Z,4.93
2019-01-11T03:03:15.837Z,5.50
2019-01-11T03:05:47.815Z,5.90
2019-01-11T03:08:19.899Z,6.93
2019-01-11T03:10:51.969Z,6.27
2019-01-11T03:13:23.965Z,7.47
2019-01-11T03:15:55.946Z,6.70
2019-01-11T03:18:27.860Z,7.30
2019-01-11T03:20:59.647Z,7.43
2019-01-11T03:23:32.356Z,8.50
2019-01-11T03:26:04.225Z,8.00
2019-01-11T03:28:36.131Z,8.47
2019-01-11T03:31:30.254Z,8.33
2019-01-11T03:34:02.255Z,8.23
2019-01-11T03:36:35.291Z,9.27
2019-01-11T03:39:10.196Z,7.77
2019-01-11T03:42:16.007Z,8.17
2019-01-11T03:44:48.059Z,7.27
2019-01-11T03:47:19.978Z,8.87
2019-01-11T03:49:54.887Z,8.33
2019-01-11T03:52:25.238Z,9.47
2019-01-11T03:54:57.041Z,8.63
2019-01-11T03:57:29.023Z,8.70
2019-01-11T04:00:00.809Z,8.73
2019-01-11T04:02:32.743Z,8.50
2019-01-11T04:05:05.657Z,8.67
2019-01-11T04:07:37.736Z,8.17
2019-01-11T04:10:17.414Z,8.40
2019-01-11T04:12:49.385Z,9.03
2019-01-11T04:15:22.804Z,9.30
2019-01-11T04:18:12.726Z,8.80
2019-01-11T04:20:44.552Z,8.63
2019-01-11T04:23:17.802Z,8.13
2019-01-11T04:25:50.013Z,8.57
2019-01-11T04:28:21.811Z,8.50
2019-01-11T04:30:53.715Z,8.33
2019-01-11T04:33:25.668Z,8.00
2019-01-11T04:35:57.525Z,8.67
2019-01-11T04:38:29.334Z,8.63
2019-01-11T04:41:01.175Z,7.70
2019-01-11T04:43:32.962Z,7.97
2019-01-11T04:46:05.074Z,7.37
2019-01-11T04:48:36.853Z,7.30
2019-01-11T04:51:08.728Z,7.63
2019-01-11T04:53:40.767Z,7.97
2019-01-11T04:56:12.769Z,8.00
2019-01-11T04:58:44.545Z,7.97
2019-01-11T05:01:16.485Z,7.33
2019-01-11T05:03:48.293Z,8.10
2019-01-11T05:06:20.430Z,8.77
2019-01-11T05:08:52.341Z,8.53
2019-01-11T05:11:24.162Z,8.03
2019-01-11T05:13:58.248Z,8.37
2019-01-11T05:16:30.093Z,8.43
2019-01-11T05:19:02.198Z,9.33
2019-01-11T05:21:34.178Z,8.93
2019-01-11T05:24:06.285Z,8.73
2019-01-11T05:26:38.307Z,9.30
2019-01-11T05:29:10.155Z,9.97
2019-01-11T05:31:41.999Z,9.70
2019-01-11T05:34:14.037Z,9.80
2019-01-11T05:36:45.933Z,9.07
2019-01-11T05:39:17.978Z,10.00
2019-01-11T05:41:49.812Z,9.33
2019-01-11T05:44:21.600Z,9.23
2019-01-11T05:46:53.552Z,9.87
2019-01-11T05:49:25.725Z,9.00
2019-01-11T05:51:57.552Z,9.57
2019-01-11T05:54:29.502Z,9.63
2019-01-11T05:57:01.343Z,9.70
2019-01-11T05:59:33.174Z,11.20
2019-01-11T06:02:05.219Z,10.27
2019-01-11T06:04:45.497Z,10.23
2019-01-11T06:07:21.600Z,10.10
2019-01-11T06:09:53.965Z,10.57
2019-01-11T06:12:26.042Z,11.03
2019-01-11T06:14:58.014Z,12.63
2019-01-11T06:17:30.126Z,11.87
2019-01-11T06:20:02.011Z,10.53
2019-01-11T06:22:33.901Z,11.50
2019-01-11T06:25:06.457Z,11.57
2019-01-11T06:27:38.577Z,11.13
2019-01-11T06:30:13.617Z,11.73
2019-01-11T06:32:45.465Z,13.13
2019-01-11T06:35:17.387Z,12.07
2019-01-11T06:37:49.351Z,12.27
2019-01-11T06:40:21.198Z,11.87
2019-01-11T06:42:53.009Z,13.50
2019-01-11T06:45:24.913Z,13.73
2019-01-11T06:47:57.054Z,15.00
2019-01-11T06:50:36.375Z,13.07
2019-01-11T06:53:04.361Z,13.93
2019-01-11T06:55:36.399Z,14.90
2019-01-11T06:58:09.348Z,12.23
2019-01-11T07:00:41.380Z,12.60
2019-01-11T07:03:13.310Z,13.93
2019-01-11T07:05:45.182Z,13.57
2019-01-11T07:08:16.996Z,13.13
2019-01-11T07:10:50.360Z,14.47
2019-01-11T07:13:22.695Z,14.20
2019-01-11T07:15:54.619Z,15.47
2019-01-11T07:18:26.625Z,13.73
2019-01-11T07:20:58.825Z,14.20
2019-01-11T07:23:30.776Z,15.30
2019-01-11T07:26:02.615Z,13.83
2019-01-11T07:28:34.423Z,13.13
2019-01-11T07:31:11.922Z,14.27
2019-01-11T07:33:43.845Z,14.03
2019-01-11T07:36:28.504Z,12.53
2019-01-11T07:39:00.543Z,13.27
2019-01-11T07:41:32.630Z,11.47
2019-01-11T07:44:04.500Z,12.77
2019-01-11T07:46:36.621Z,15.63
2019-01-11T07:49:08.407Z,12.57
2019-01-11T07:51:40.349Z,12.53
2019-01-11T07:54:12.674Z,12.53
2019-01-11T07:56:44.515Z,11.73
2019-01-11T07:59:16.639Z,10.63
2019-01-11T08:01:48.489Z,12.30
2019-01-11T08:04:20.679Z,11.80
2019-01-11T08:06:52.524Z,13.13
2019-01-11T08:09:24.425Z,11.90
2019-01-11T08:11:56.507Z,11.70
2019-01-11T08:14:28.473Z,11.57
2019-01-11T08:17:00.579Z,13.30
2019-01-11T08:19:32.844Z,12.20
2019-01-11T08:22:04.983Z,13.03
2019-01-11T08:24:37.591Z,10.70
2019-01-11T08:27:09.453Z,12.63
2019-01-11T08:29:41.599Z,12.13
2019-01-11T08:32:13.537Z,12.23
2019-01-11T08:34:45.593Z,12.00
2019-01-11T08:37:19.197Z,13.17
2019-01-11T08:39:52.324Z,12.67
2019-01-11T08:42:24.246Z,12.87
2019-01-11T08:44:57.534Z,13.03
2019-01-11T08:47:29.653Z,12.20
2019-01-11T08:50:01.760Z,13.40
2019-01-11T08:52:33.742Z,12.90
2019-01-11T08:55:06.496Z,14.60
2019-01-11T08:57:38.340Z,12.47
2019-01-11T09:00:12.745Z,14.20
2019-01-11T09:02:44.607Z,13.20
2019-01-11T09:05:16.411Z,13.63
2019-01-11T09:07:48.616Z,14.20
2019-01-11T09:10:22.971Z,14.60
2019-01-11T09:12:54.288Z,15.30
2019-01-11T09:15:26.128Z,17.73
2019-01-11T09:18:17.090Z,18.80
2019-01-11T09:20:49.189Z,19.83
2019-01-11T09:23:21.054Z,17.77
2019-01-11T09:25:53.175Z,16.83
2019-01-11T09:28:25.159Z,14.50
2019-01-11T09:30:57.057Z,16.70
2019-01-11T09:33:28.940Z,15.27
2019-01-11T09:36:00.854Z,19.27
2019-01-11T09:38:32.772Z,18.07
2019-01-11T09:41:06.747Z,17.67
2019-01-11T09:43:38.763Z,18.63
2019-01-11T09:46:10.621Z,20.80
2019-01-11T09:48:42.407Z,20.17
2019-01-11T09:51:15.847Z,17.67
2019-01-11T09:53:47.824Z,21.73
2019-01-11T09:56:20.634Z,18.03
2019-01-11T09:58:52.694Z,19.83
2019-01-11T10:01:24.666Z,20.27
2019-01-11T10:03:56.579Z,21.93
2019-01-11T10:06:28.508Z,21.60
2019-01-11T10:09:00.482Z,24.97
2019-01-11T10:11:32.476Z,21.23
2019-01-11T10:14:06.067Z,26.53
2019-01-11T10:16:38.069Z,22.23
2019-01-11T10:19:09.993Z,20.67
2019-01-11T10:21:42.042Z,17.50
2019-01-11T10:24:14.016Z,20.40
2019-01-11T10:26:45.861Z,18.30
2019-01-11T10:29:17.698Z,20.00
2019-01-11T10:31:49.696Z,20.80
2019-01-11T10:34:21.608Z,20.57
2019-01-11T10:36:55.278Z,19.77
2019-01-11T10:39:27.285Z,21.70
2019-01-11T10:41:59.145Z,20.63
2019-01-11T10:44:31.030Z,18.57
2019-01-11T10:47:02.975Z,19.90
2019-01-11T10:49:34.804Z,20.60
2019-01-11T10:52:07.938Z,19.63
2019-01-11T10:54:43.613Z,19.87
2019-01-11T10:57:15.428Z,24.67
2019-01-11T10:59:47.272Z,20.00
2019-01-11T11:02:19.354Z,23.77
2019-01-11T11:04:51.212Z,19.90
2019-01-11T11:07:23.055Z,22.37
2019-01-11T11:09:54.944Z,23.63
2019-01-11T11:12:26.762Z,23.90
2019-01-11T11:14:58.614Z,22.83
2019-01-11T11:17:30.612Z,28.80
2019-01-11T11:20:02.606Z,21.67
2019-01-11T11:22:34.783Z,20.17
2019-01-11T11:25:10.010Z,25.53
2019-01-11T11:27:42.071Z,25.87
2019-01-11T11:30:15.702Z,23.07
2019-01-11T11:33:12.430Z,27.07
2019-01-11T11:35:44.468Z,23.73
2019-01-11T11:38:16.323Z,24.63
2019-01-11T11:40:49.735Z,23.70
2019-01-11T11:43:21.660Z,25.00
2019-01-11T11:45:53.603Z,24.83
2019-01-11T11:48:25.447Z,26.33
2019-01-11T11:50:57.718Z,25.77
2019-01-11T11:53:29.761Z,25.50
2019-01-11T11:56:01.882Z,24.80
2019-01-11T11:58:33.683Z,27.67
2019-01-11T12:01:07.689Z,21.80
2019-01-11T12:03:39.637Z,23.63
2019-01-11T12:06:11.548Z,23.07
2019-01-11T12:08:43.575Z,19.47
2019-01-11T12:11:16.151Z,20.53
2019-01-11T12:13:48.012Z,24.43
2019-01-11T12:16:20.224Z,26.23
2019-01-11T12:18:52.190Z,24.17
2019-01-11T12:21:24.160Z,23.60
2019-01-11T12:23:56.326Z,22.57
2019-01-11T12:26:28.267Z,20.60
2019-01-11T12:29:00.567Z,21.83
2019-01-11T12:31:32.698Z,25.73
2019-01-11T12:34:04.657Z,25.13
2019-01-11T12:36:36.510Z,21.17
2019-01-11T12:39:10.035Z,20.67
2019-01-11T12:41:41.841Z,23.23
2019-01-11T12:44:13.700Z,21.80
2019-01-11T12:46:45.751Z,21.87
2019-01-11T12:49:17.628Z,23.27
2019-01-11T12:51:53.962Z,22.30
2019-01-11T12:54:23.351Z,19.57
2019-01-11T12:56:55.238Z,26.43
2019-01-11T12:59:27.492Z,21.07
2019-01-11T13:01:59.708Z,19.27
2019-01-11T13:04:31.869Z,19.83
2019-01-11T13:07:03.989Z,21.63
2019-01-11T13:09:36.151Z,17.87
2019-01-11T13:12:08.284Z,20.40
2019-01-11T13:14:40.526Z,20.20
2019-01-11T13:17:12.815Z,17.60
2019-01-11T13:19:44.955Z,15.97
2019-01-11T13:22:16.871Z,15.50
2019-01-11T13:24:48.945Z,14.97
2019-01-11T13:27:21.047Z,13.67
2019-01-11T13:29:53.141Z,14.63
2019-01-11T13:32:26.271Z,11.50
2019-01-11T13:34:59.109Z,11.50
2019-01-11T13:37:31.069Z,13.23
2019-01-11T13:40:02.911Z,10.77
2019-01-11T13:42:34.952Z,10.73
2019-01-11T13:45:08.190Z,8.60
2019-01-11T13:47:40.465Z,9.20
2019-01-11T13:50:42.059Z,9.87
2019-01-11T13:53:23.552Z,9.67
2019-01-11T13:55:55.651Z,10.93
2019-01-11T13:58:27.610Z,7.53
2019-01-11T14:00:59.528Z,8.70
2019-01-11T14:03:31.523Z,8.53
2019-01-11T14:06:03.595Z,7.33
2019-01-11T14:08:35.646Z,8.17
2019-01-11T14:11:07.702Z,6.67
2019-01-11T14:13:41.899Z,7.10
2019-01-11T14:16:13.921Z,7.83
2019-01-11T14:18:45.941Z,9.33
2019-01-11T14:21:18.171Z,8.03
2019-01-11T14:23:50.221Z,7.47
2019-01-11T14:26:22.459Z,6.07
2019-01-11T14:28:54.382Z,7.07
2019-01-11T14:31:26.255Z,5.87
2019-01-11T14:33:58.473Z,3.70
2019-01-11T14:36:30.526Z,5.77
2019-01-11T14:39:02.509Z,4.30
2019-01-11T14:41:34.812Z,6.73
2019-01-11T14:44:07.004Z,7.57
2019-01-11T14:46:38.967Z,7.23
2019-01-11T14:49:10.923Z,8.47
2019-01-11T14:51:42.890Z,4.93
2019-01-11T14:54:14.850Z,5.57
2019-01-11T14:56:46.933Z,5.20
2019-01-11T14:59:18.831Z,5.93
2019-01-11T15:02:09.725Z,7.17
2019-01-11T15:04:41.696Z,7.47
2019-01-11T15:07:13.725Z,8.27
2019-01-11T15:09:45.702Z,7.00
2019-01-11T15:12:19.054Z,5.73
2019-01-11T15:14:50.937Z,6.80
2019-01-11T15:17:22.948Z,7.50
2019-01-11T15:19:55.104Z,5.13
2019-01-11T15:22:27.066Z,6.60
2019-01-11T15:24:59.042Z,4.53
2019-01-11T15:27:31.014Z,3.90
2019-01-11T15:30:03.124Z,4.70
2019-01-11T15:32:34.888Z,4.83
2019-01-11T15:35:07.968Z,3.40
2019-01-11T15:37:39.828Z,5.80
2019-01-11T15:40:20.876Z,5.60
2019-01-11T15:42:52.824Z,4.33
2019-01-11T15:45:24.704Z,4.30
2019-01-11T15:47:56.554Z,3.93
2019-01-11T15:51:03.059Z,3.20
2019-01-11T15:53:39.402Z,5.50
2019-01-11T15:56:13.218Z,3.73
2019-01-11T15:58:45.305Z,2.40
2019-01-11T16:01:17.338Z,2.40
2019-01-11T16:03:49.321Z,3.70
2019-01-11T16:06:36.680Z,4.00
2019-01-11T16:10:02.969Z,2.53
2019-01-11T16:13:29.028Z,6.10
2019-01-11T16:16:44.650Z,6.03
2019-01-11T16:19:16.748Z,3.53
2019-01-11T16:21:48.789Z,4.97
2019-01-11T16:24:20.685Z,2.97
2019-01-11T16:26:54.025Z,4.50
2019-01-11T16:29:26.097Z,5.03
2019-01-11T16:31:59.493Z,2.70
2019-01-11T16:34:31.428Z,3.17
2019-01-11T16:37:04.573Z,6.50
2019-01-11T16:39:36.558Z,2.73
2019-01-11T16:42:08.597Z,3.80
2019-01-11T16:44:40.678Z,4.67
2019-01-11T16:47:12.622Z,3.47
2019-01-11T16:49:44.591Z,7.73
2019-01-11T16:52:16.579Z,4.67
2019-01-11T16:54:48.744Z,4.40
2019-01-11T16:57:22.027Z,4.40
2019-01-11T16:59:54.243Z,4.43
2019-01-11T17:02:26.327Z,4.57
2019-01-11T17:04:58.584Z,6.20
2019-01-11T17:07:30.595Z,3.93
2019-01-11T17:10:02.957Z,4.97
2019-01-11T17:12:41.580Z,6.27
2019-01-11T17:15:13.706Z,3.20
2019-01-11T17:17:45.660Z,4.40
2019-01-11T17:20:19.008Z,4.97
2019-01-11T17:22:53.214Z,4.17
2019-01-11T17:25:24.527Z,4.97
2019-01-11T17:27:56.703Z,4.17
2019-01-11T17:30:29.325Z,3.43
2019-01-11T17:33:01.245Z,4.00
2019-01-11T17:35:33.339Z,4.27
2019-01-11T17:38:05.509Z,7.43
2019-01-11T17:40:37.499Z,6.70
2019-01-11T17:43:09.368Z,4.30
2019-01-11T17:45:41.557Z,3.83
2019-01-11T17:48:13.780Z,3.40
2019-01-11T17:50:45.847Z,4.73
2019-01-11T17:53:17.934Z,4.67
2019-01-11T17:55:50.046Z,3.70
2019-01-11T17:58:22.033Z,7.70
2019-01-11T18:00:54.024Z,4.43
2019-01-11T18:03:25.935Z,6.30
2019-01-11T18:05:57.796Z,5.90
2019-01-11T18:08:29.877Z,6.80
2019-01-11T18:11:01.800Z,4.07
2019-01-11T18:13:33.902Z,3.97
2019-01-11T18:16:06.296Z,3.70
2019-01-11T18:18:38.282Z,5.40
2019-01-11T18:21:10.201Z,7.00
2019-01-11T18:23:42.222Z,5.20
2019-01-11T18:26:14.045Z,5.83
2019-01-11T18:28:46.089Z,4.83
2019-01-11T18:31:18.046Z,5.93
2019-01-11T18:33:50.079Z,5.97
2019-01-11T18:36:22.068Z,8.60
2019-01-11T18:38:54.002Z,6.80
2019-01-11T18:41:25.911Z,4.90
2019-01-11T18:43:57.951Z,5.57
2019-01-11T18:46:29.887Z,9.00
2019-01-11T18:49:01.899Z,5.83
2019-01-11T18:51:33.810Z,5.60
2019-01-11T18:54:05.998Z,6.30
2019-01-11T18:56:39.629Z,4.90
2019-01-11T18:59:11.781Z,5.77
2019-01-11T19:01:44.942Z,5.80
2019-01-11T19:04:16.933Z,5.87
2019-01-11T19:06:49.882Z,5.13
2019-01-11T19:09:21.870Z,6.63
2019-01-11T19:11:53.941Z,4.77
2019-01-11T19:14:25.856Z,6.53
2019-01-11T19:16:57.996Z,5.67
2019-01-11T19:19:30.089Z,5.40
2019-01-11T19:22:02.126Z,5.67
2019-01-11T19:24:34.544Z,6.10
2019-01-11T19:27:07.830Z,6.87
2019-01-11T19:29:39.682Z,5.90
2019-01-11T19:32:11.895Z,8.13
2019-01-11T19:34:44.011Z,6.37
2019-01-11T19:37:16.297Z,7.03
2019-01-11T19:39:48.228Z,8.93
2019-01-11T19:42:20.188Z,12.77
2019-01-11T19:44:52.105Z,8.83
2019-01-11T19:47:24.107Z,10.77
2019-01-11T19:49:56.134Z,8.87
2019-01-11T19:52:28.120Z,7.63
2019-01-11T19:55:00.320Z,6.00
2019-01-11T19:57:32.390Z,10.30
2019-01-11T20:00:05.303Z,8.13
2019-01-11T20:02:37.318Z,6.17
2019-01-11T20:05:09.942Z,6.30
2019-01-11T20:07:42.315Z,5.90
2019-01-11T20:10:19.752Z,7.17
2019-01-11T20:12:51.865Z,4.97
2019-01-11T20:15:35.583Z,6.83
2019-01-11T20:18:08.204Z,6.13
2019-01-11T20:20:40.151Z,6.87
2019-01-11T20:23:12.251Z,5.60
2019-01-11T20:25:44.386Z,6.37
2019-01-11T20:28:16.263Z,7.23
2019-01-11T20:30:48.203Z,6.67
2019-01-11T20:33:20.205Z,5.50
2019-01-11T20:35:52.355Z,7.07
2019-01-11T20:38:24.210Z,8.83
2019-01-11T20:40:56.548Z,7.10
2019-01-11T20:43:28.796Z,8.40
2019-01-11T20:46:03.286Z,8.23
2019-01-11T20:48:34.735Z,7.40
2019-01-11T20:51:06.625Z,7.33
2019-01-11T20:53:41.847Z,6.77
2019-01-11T20:56:12.414Z,8.57
2019-01-11T20:58:44.452Z,8.03
2019-01-11T21:01:17.685Z,5.83
2019-01-11T21:03:49.688Z,10.63
2019-01-11T21:06:21.779Z,6.83
2019-01-11T21:08:53.949Z,6.53
2019-01-11T21:11:25.992Z,6.30
2019-01-11T21:13:58.063Z,7.60
2019-01-11T21:16:30.108Z,10.27
2019-01-11T21:19:01.999Z,7.00
2019-01-11T21:21:33.830Z,6.80
2019-01-11T21:24:05.939Z,7.33
2019-01-11T21:26:37.958Z,6.70
2019-01-11T21:29:10.013Z,5.93
2019-01-11T21:31:42.103Z,6.67
2019-01-11T21:34:14.342Z,8.50
2019-01-11T21:36:46.433Z,5.80
2019-01-11T21:39:18.333Z,6.23
2019-01-11T21:41:50.610Z,5.50
2019-01-11T21:44:22.601Z,8.67
2019-01-11T21:46:54.553Z,6.67
2019-01-11T21:49:26.614Z,5.73
2019-01-11T21:51:58.563Z,7.43
2019-01-11T21:54:30.493Z,6.90
2019-01-11T21:57:02.508Z,7.43
2019-01-11T21:59:34.543Z,5.20
2019-01-11T22:02:06.637Z,6.93
2019-01-11T22:04:38.520Z,6.77
2019-01-11T22:07:10.478Z,6.20
2019-01-11T22:09:42.367Z,6.43
2019-01-11T22:12:14.361Z,6.07
2019-01-11T22:14:46.218Z,11.50
2019-01-11T22:17:19.857Z,8.60
2019-01-11T22:19:51.775Z,8.93
2019-01-11T22:22:23.745Z,9.47
2019-01-11T22:24:55.722Z,9.40
2019-01-11T22:27:27.649Z,10.07
2019-01-11T22:29:59.605Z,9.90
2019-01-11T22:32:31.770Z,8.03
2019-01-11T22:35:04.069Z,7.80
2019-01-11T22:37:38.128Z,7.93
2019-01-11T22:40:16.970Z,6.33
2019-01-11T22:42:51.061Z,5.60
2019-01-11T22:45:23.245Z,6.53
2019-01-11T22:47:55.383Z,7.40
2019-01-11T22:50:27.526Z,6.70
2019-01-11T22:52:59.533Z,4.63
2019-01-11T22:55:31.575Z,6.97
2019-01-11T22:58:03.726Z,5.53
2019-01-11T23:01:22.258Z,4.83
2019-01-11T23:03:56.371Z,5.70
2019-01-11T23:07:08.161Z,6.17
2019-01-11T23:10:02.104Z,6.33
2019-01-11T23:13:03.971Z,6.63
2019-01-11T23:15:40.078Z,9.27
2019-01-11T23:18:18.780Z,6.67
2019-01-11T23:20:54.253Z,6.07
2019-01-11T23:23:26.123Z,6.77
2019-01-11T23:25:58.347Z,6.30
2019-01-11T23:28:30.230Z,7.97
2019-01-11T23:31:02.226Z,6.47
2019-01-11T23:33:34.088Z,5.03
2019-01-11T23:36:06.243Z,6.77
2019-01-11T23:38:38.322Z,3.67
2019-01-11T23:41:10.288Z,3.83
2019-01-11T23:43:42.103Z,3.33
2019-01-11T23:46:13.969Z,4.53
2019-01-11T23:48:45.955Z,4.17
2019-01-11T23:51:18.037Z,5.77
2019-01-11T23:53:50.794Z,5.37
2019-01-11T23:56:22.676Z,4.43
2019-01-11T23:58:54.559Z,6.10
